Time;durP1;ratioP1;P1;durP2;ratioP2;P2;SDS_P1;SDS_P2;PMS_P1;PMS_P2;Temp;Humidity;BMP_temperature;BMP_pressure;BME280_temperature;BME280_humidity;BME280_pressure;Samples;Min_cycle;Max_cycle;Signal;HPM_P1;HPM_P2
2023/01/23 00:00:03;;;;;;;4.18;4.07;;;0.00;99.90;;;;;;5033710;28;20056;-72
2023/01/23 00:02:29;;;;;;;5.03;4.82;;;0.00;99.90;;;;;;5051717;28;20071;-72
2023/01/23 00:04:54;;;;;;;3.75;3.65;;;-0.10;99.90;;;;;;5033650;28;20072;-72
2023/01/23 00:07:20;;;;;;;5.35;4.93;;;-0.10;99.90;;;;;;5033556;28;20044;-71
2023/01/23 00:09:45;;;;;;;3.78;3.67;;;-0.10;99.90;;;;;;5051884;28;20025;-71
2023/01/23 00:12:11;;;;;;;4.70;4.60;;;-0.10;99.90;;;;;;5071570;28;20025;-72
2023/01/23 00:14:36;;;;;;;4.75;4.63;;;-0.10;99.90;;;;;;5053470;28;20024;-72
2023/01/23 00:17:02;;;;;;;4.47;4.25;;;0.00;99.90;;;;;;5071399;28;20112;-71
2023/01/23 00:19:27;;;;;;;3.92;3.83;;;0.00;99.90;;;;;;5054143;28;20515;-71
2023/01/23 00:21:53;;;;;;;5.88;5.68;;;0.00;99.90;;;;;;5053493;28;20028;-71
2023/01/23 00:24:19;;;;;;;4.38;4.22;;;0.00;99.90;;;;;;5040322;28;20033;-71
2023/01/23 00:26:44;;;;;;;6.38;6.10;;;0.00;99.90;;;;;;5051285;28;20033;-71
2023/01/23 00:29:09;;;;;;;3.90;3.80;;;0.00;99.90;;;;;;5033619;28;20021;-71
2023/01/23 00:31:38;;;;;;;5.38;5.18;;;0.00;99.90;;;;;;5064291;28;20026;-71
2023/01/23 00:34:11;;;;;;;4.57;4.47;;;0.00;99.90;;;;;;5051215;28;20104;-72
2023/01/23 00:36:39;;;;;;;4.63;4.53;;;0.00;99.90;;;;;;5051158;28;20037;-72
2023/01/23 00:39:08;;;;;;;4.47;4.38;;;0.00;99.90;;;;;;5036759;28;20466;-73
2023/01/23 00:41:33;;;;;;;4.57;4.47;;;0.00;99.90;;;;;;5055405;28;20390;-73
2023/01/23 00:43:59;;;;;;;4.20;4.10;;;0.00;99.90;;;;;;5037368;28;20025;-73
2023/01/23 00:46:25;;;;;;;4.30;4.20;;;0.00;99.90;;;;;;5055187;28;20040;-72
2023/01/23 00:48:51;;;;;;;3.42;3.33;;;0.00;99.90;;;;;;5054844;28;20059;-73
2023/01/23 00:51:16;;;;;;;4.47;4.28;;;0.00;99.90;;;;;;5055159;28;20028;-74
2023/01/23 00:53:42;;;;;;;3.67;3.58;;;-0.10;99.90;;;;;;5055079;28;20061;-74
2023/01/23 00:56:08;;;;;;;4.35;4.25;;;-0.20;99.90;;;;;;5054969;28;20394;-73
2023/01/23 00:58:35;;;;;;;4.28;4.18;;;-0.10;99.90;;;;;;5054764;28;20036;-72
2023/01/23 01:01:00;;;;;;;4.47;4.38;;;-0.10;99.90;;;;;;5054942;28;20036;-74
2023/01/23 01:03:26;;;;;;;4.70;4.60;;;-0.10;99.90;;;;;;5055236;28;20029;-74
2023/01/23 01:05:51;;;;;;;4.32;4.22;;;0.00;99.90;;;;;;5054819;28;20031;-73
2023/01/23 01:08:17;;;;;;;4.63;4.43;;;0.00;99.90;;;;;;5054657;28;20032;-73
2023/01/23 01:10:43;;;;;;;4.13;4.03;;;-0.10;99.90;;;;;;5054785;28;20517;-73
2023/01/23 01:13:09;;;;;;;4.20;4.10;;;-0.10;99.90;;;;;;5054707;28;20545;-73
2023/01/23 01:15:35;;;;;;;5.10;4.80;;;-0.10;99.90;;;;;;5055202;28;20036;-73
2023/01/23 01:18:01;;;;;;;4.88;4.68;;;-0.10;99.90;;;;;;5054437;28;20109;-73
2023/01/23 01:20:28;;;;;;;4.20;4.10;;;0.00;99.90;;;;;;5054712;28;20470;-72
2023/01/23 01:22:55;;;;;;;4.63;4.32;;;-0.10;99.90;;;;;;5070635;28;20020;-73
2023/01/23 01:25:21;;;;;;;3.88;3.78;;;-0.10;99.90;;;;;;5074490;28;20493;-73
2023/01/23 01:27:47;;;;;;;3.70;3.58;;;-0.10;99.90;;;;;;5074219;28;20127;-73
2023/01/23 01:30:14;;;;;;;3.60;3.50;;;0.00;99.90;;;;;;5065113;28;20071;-74
2023/01/23 01:32:40;;;;;;;4.28;4.18;;;-0.10;99.90;;;;;;5036527;28;20432;-75
2023/01/23 01:35:07;;;;;;;4.60;4.43;;;-0.10;99.90;;;;;;5036347;28;20430;-75
2023/01/23 01:37:34;;;;;;;4.15;4.05;;;0.00;99.90;;;;;;5036121;28;20135;-74
2023/01/23 01:40:00;;;;;;;3.80;3.70;;;0.00;99.90;;;;;;5036394;28;20028;-74
2023/01/23 01:42:27;;;;;;;4.03;3.92;;;0.00;99.90;;;;;;5054561;28;20489;-75
2023/01/23 01:44:54;;;;;;;3.83;3.72;;;0.10;99.90;;;;;;5054216;28;20071;-75
2023/01/23 01:47:20;;;;;;;4.13;3.95;;;0.10;99.90;;;;;;5035897;28;20029;-75
2023/01/23 01:49:46;;;;;;;4.70;4.60;;;0.10;99.90;;;;;;5053708;28;20036;-75
2023/01/23 01:52:13;;;;;;;4.20;4.10;;;0.10;99.90;;;;;;5036150;28;20453;-74
2023/01/23 01:54:57;;;;;;;4.47;4.35;;;0.10;99.90;;;;;;5035986;28;20372;-75
2023/01/23 01:57:32;;;;;;;3.15;3.05;;;0.20;99.90;;;;;;5053774;28;20029;-72
2023/01/23 02:00:00;;;;;;;4.68;4.53;;;0.10;99.90;;;;;;5035888;28;20032;-74
2023/01/23 02:02:30;;;;;;;4.07;3.97;;;0.10;99.90;;;;;;5053881;28;20055;-73
2023/01/23 02:05:11;;;;;;;3.85;3.75;;;0.10;99.90;;;;;;5035777;28;20029;-71
2023/01/23 02:07:49;;;;;;;3.60;3.50;;;0.10;99.90;;;;;;5062949;28;20032;-70
2023/01/23 02:10:15;;;;;;;3.90;3.80;;;0.10;99.90;;;;;;5073569;28;20460;-72
2023/01/23 02:12:45;;;;;;;5.72;5.53;;;0.10;99.90;;;;;;5073696;28;20070;-72
2023/01/23 02:15:11;;;;;;;3.83;3.72;;;0.10;99.90;;;;;;5073582;28;20466;-72
2023/01/23 02:17:37;;;;;;;5.72;5.45;;;0.10;99.90;;;;;;5055489;28;20035;-74
2023/01/23 02:20:20;;;;;;;3.65;3.55;;;0.10;99.90;;;;;;5055543;28;20029;-73
2023/01/23 02:22:46;;;;;;;3.60;3.47;;;0.10;99.90;;;;;;5073400;28;20138;-73
2023/01/23 02:25:42;;;;;;;4.90;4.65;;;0.10;99.90;;;;;;5048627;28;20048;-74
2023/01/23 02:28:12;;;;;;;4.03;3.92;;;0.10;99.90;;;;;;5053121;28;20104;-74
2023/01/23 02:30:39;;;;;;;3.38;3.28;;;0.10;99.90;;;;;;5065847;28;20028;-74
2023/01/23 02:33:30;;;;;;;4.03;3.83;;;0.00;99.90;;;;;;5035973;28;20382;-74
2023/01/23 02:35:57;;;;;;;4.10;4.00;;;0.00;99.90;;;;;;5053604;28;20505;-72
2023/01/23 02:38:31;;;;;;;3.55;3.45;;;0.10;99.90;;;;;;5052950;28;20029;-73
2023/01/23 02:41:00;;;;;;;5.38;5.07;;;0.10;99.90;;;;;;5053137;28;20044;-72
2023/01/23 02:43:33;;;;;;;3.58;3.47;;;0.10;99.90;;;;;;5053155;28;20028;-73
2023/01/23 02:46:10;;;;;;;3.10;3.00;;;0.10;99.90;;;;;;5035007;28;20060;-73
2023/01/23 02:48:38;;;;;;;3.83;3.72;;;0.10;99.90;;;;;;5052703;28;20056;-72
2023/01/23 02:51:04;;;;;;;3.58;3.47;;;0.10;99.90;;;;;;5052880;28;20094;-73
2023/01/23 02:53:30;;;;;;;3.63;3.53;;;0.10;99.90;;;;;;5034898;28;20024;-72
2023/01/23 02:55:57;;;;;;;3.90;3.80;;;0.10;99.90;;;;;;5052967;28;20382;-72
2023/01/23 03:01:08;;;;;;;5.10;4.90;;;0.10;99.90;;;;;;5052220;28;20430;-75
2023/01/23 03:03:34;;;;;;;4.10;4.00;;;0.10;99.90;;;;;;5052808;28;20102;-73
2023/01/23 03:06:02;;;;;;;3.75;3.65;;;0.10;99.90;;;;;;5034815;28;20534;-73
2023/01/23 03:08:32;;;;;;;6.45;6.13;;;0.10;99.90;;;;;;5052272;28;20028;-74
2023/01/23 03:11:00;;;;;;;3.35;3.25;;;0.10;99.90;;;;;;5034736;28;20096;-73
2023/01/23 03:13:25;;;;;;;4.25;4.15;;;0.10;99.90;;;;;;5052400;28;20029;-73
2023/01/23 03:15:51;;;;;;;4.45;4.22;;;0.10;99.90;;;;;;5034569;28;20032;-74
2023/01/23 03:18:18;;;;;;;6.47;6.18;;;0.10;99.90;;;;;;5034326;28;20148;-75
2023/01/23 03:20:44;;;;;;;4.25;4.15;;;0.10;99.90;;;;;;5034620;28;20029;-75
2023/01/23 03:23:10;;;;;;;3.92;3.83;;;0.10;99.90;;;;;;5052198;28;20051;-73
2023/01/23 03:25:35;;;;;;;3.78;3.67;;;0.10;99.90;;;;;;5034338;28;20029;-75
2023/01/23 03:28:01;;;;;;;4.38;4.28;;;0.10;99.90;;;;;;5051998;28;20035;-75
2023/01/23 03:30:26;;;;;;;3.97;3.88;;;0.10;99.90;;;;;;5063083;28;20021;-75
2023/01/23 03:32:52;;;;;;;4.38;4.28;;;0.00;99.90;;;;;;5054341;28;20021;-74
2023/01/23 03:35:21;;;;;;;5.00;4.80;;;-0.10;99.90;;;;;;5051980;28;20035;-75
2023/01/23 03:37:48;;;;;;;3.90;3.80;;;0.00;99.90;;;;;;5051683;28;20021;-74
2023/01/23 03:43:04;;;;;;;3.67;3.58;;;0.00;99.90;;;;;;5052567;28;20039;-74
2023/01/23 03:45:30;;;;;;;4.57;4.47;;;0.00;99.90;;;;;;5033894;28;20029;-74
2023/01/23 03:47:56;;;;;;;4.75;4.55;;;-0.20;99.90;;;;;;5051740;28;20060;-74
2023/01/23 03:50:21;;;;;;;4.70;4.30;;;-0.20;99.90;;;;;;5033699;28;20056;-74
2023/01/23 03:52:47;;;;;;;4.05;3.95;;;-0.20;99.90;;;;;;5051859;28;20413;-73
2023/01/23 03:55:12;;;;;;;13.68;4.95;;;-0.30;99.90;;;;;;5051657;28;20039;-73
2023/01/23 03:57:38;;;;;;;4.88;4.57;;;-0.30;99.90;;;;;;5051534;28;20104;-74
2023/01/23 04:00:04;;;;;;;4.10;3.83;;;-0.30;99.90;;;;;;5033859;28;20025;-74
2023/01/23 04:02:31;;;;;;;3.92;3.83;;;-0.30;99.90;;;;;;5051638;28;20489;-73
2023/01/23 04:04:56;;;;;;;4.07;3.97;;;-0.30;99.90;;;;;;5033528;28;20029;-73
2023/01/23 04:07:22;;;;;;;3.88;3.78;;;-0.20;99.90;;;;;;5051437;28;20485;-73
2023/01/23 04:09:48;;;;;;;4.00;3.90;;;-0.20;99.90;;;;;;5051478;28;20032;-73
2023/01/23 04:12:13;;;;;;;3.75;3.65;;;-0.20;99.90;;;;;;5051587;28;20391;-72
2023/01/23 04:14:39;;;;;;;3.80;3.70;;;-0.20;99.90;;;;;;5033484;28;20498;-73
2023/01/23 04:17:06;;;;;;;3.83;3.72;;;-0.20;99.90;;;;;;5051397;28;20163;-72
2023/01/23 04:19:33;;;;;;;3.30;3.20;;;-0.20;99.90;;;;;;5051350;28;20025;-74
2023/01/23 04:21:58;;;;;;;3.38;3.28;;;-0.20;99.90;;;;;;5051572;28;20082;-74
2023/01/23 04:24:24;;;;;;;4.05;3.95;;;-0.20;99.90;;;;;;5033435;28;20029;-74
2023/01/23 04:26:50;;;;;;;3.75;3.65;;;-0.20;99.90;;;;;;5033521;28;20029;-75
2023/01/23 04:29:16;;;;;;;3.65;3.55;;;-0.20;99.90;;;;;;5034622;28;20375;-73
2023/01/23 04:31:41;;;;;;;3.45;3.35;;;-0.20;99.90;;;;;;5063517;28;20455;-74
2023/01/23 04:34:07;;;;;;;3.17;3.08;;;-0.30;99.90;;;;;;5051226;28;20024;-74
2023/01/23 04:36:33;;;;;;;3.47;3.38;;;-0.20;99.90;;;;;;5051248;28;20033;-72
2023/01/23 04:38:59;;;;;;;3.63;3.53;;;-0.20;99.90;;;;;;5051201;28;20021;-72
2023/01/23 04:41:27;;;;;;;4.15;4.05;;;-0.30;99.90;;;;;;5051419;28;20048;-73
2023/01/23 04:43:52;;;;;;;3.13;3.03;;;-0.20;99.90;;;;;;5051207;28;20024;-72
2023/01/23 04:46:18;;;;;;;3.42;3.33;;;-0.20;99.90;;;;;;5051175;28;20017;-71
2023/01/23 04:48:43;;;;;;;3.97;3.88;;;-0.20;99.90;;;;;;5050933;28;20471;-71
2023/01/23 04:51:09;;;;;;;3.42;3.33;;;-0.20;99.90;;;;;;5051092;28;20032;-72
2023/01/23 04:53:35;;;;;;;3.80;3.70;;;-0.20;99.90;;;;;;5051030;28;20025;-72
2023/01/23 04:56:01;;;;;;;3.55;3.45;;;-0.20;99.90;;;;;;5051170;28;20032;-72
2023/01/23 04:58:26;;;;;;;3.30;3.20;;;-0.20;99.90;;;;;;5050953;28;20021;-72
2023/01/23 05:00:52;;;;;;;4.50;4.28;;;-0.20;99.90;;;;;;5051092;28;20502;-71
2023/01/23 05:03:18;;;;;;;4.13;4.03;;;-0.20;99.90;;;;;;5050930;28;20021;-72
2023/01/23 05:05:44;;;;;;;3.78;3.67;;;-0.20;99.90;;;;;;5050974;28;20390;-73
2023/01/23 05:08:11;;;;;;;3.58;3.47;;;-0.20;99.90;;;;;;5033032;28;20060;-72
2023/01/23 05:10:37;;;;;;;3.15;3.05;;;-0.20;99.90;;;;;;5050876;28;20029;-72
2023/01/23 05:13:03;;;;;;;3.97;3.78;;;-0.20;99.90;;;;;;5033019;28;20043;-72
2023/01/23 05:15:29;;;;;;;3.20;3.10;;;-0.20;99.90;;;;;;5051025;28;20444;-72
2023/01/23 05:17:54;;;;;;;3.15;3.05;;;-0.20;99.90;;;;;;5050515;28;20096;-72
2023/01/23 05:20:22;;;;;;;3.42;3.33;;;-0.20;99.90;;;;;;5033012;28;20128;-73
2023/01/23 05:22:51;;;;;;;3.83;3.72;;;-0.10;99.90;;;;;;5033270;28;20035;-72
2023/01/23 05:25:27;;;;;;;3.65;3.55;;;-0.10;99.90;;;;;;5054471;28;20124;-73
2023/01/23 05:27:53;;;;;;;5.28;5.05;;;0.00;99.90;;;;;;5036706;28;20021;-73
2023/01/23 05:30:21;;;;;;;4.03;3.55;;;0.00;99.90;;;;;;5046736;28;20374;-73
2023/01/23 05:32:47;;;;;;;3.67;3.58;;;0.00;99.90;;;;;;5057791;28;20105;-74
2023/01/23 05:35:14;;;;;;;3.80;3.60;;;0.00;99.90;;;;;;5054783;28;20033;-73
2023/01/23 05:37:40;;;;;;;3.70;3.60;;;0.00;99.90;;;;;;5054620;28;20498;-74
2023/01/23 05:40:07;;;;;;;3.35;3.25;;;0.00;99.90;;;;;;5054321;28;20063;-73
2023/01/23 05:42:34;;;;;;;3.67;3.55;;;0.00;99.90;;;;;;5036738;28;20025;-73
2023/01/23 05:44:59;;;;;;;4.15;3.95;;;0.00;99.90;;;;;;5036455;28;20025;-73
2023/01/23 05:47:25;;;;;;;3.60;3.50;;;0.00;99.90;;;;;;5054222;28;20653;-73
2023/01/23 05:49:50;;;;;;;4.22;3.92;;;0.00;99.90;;;;;;5036149;28;20033;-74
2023/01/23 05:52:16;;;;;;;3.33;3.22;;;0.00;99.90;;;;;;5054212;28;20053;-73
2023/01/23 05:54:41;;;;;;;4.38;4.07;;;0.00;99.90;;;;;;5053968;28;20486;-73
2023/01/23 05:57:08;;;;;;;3.10;3.00;;;0.00;99.90;;;;;;5053752;28;20024;-74
2023/01/23 05:59:33;;;;;;;2.88;2.78;;;0.00;99.90;;;;;;5063713;28;20047;-74
2023/01/23 06:01:59;;;;;;;3.33;3.22;;;0.00;99.90;;;;;;5055887;28;20166;-74
2023/01/23 06:04:24;;;;;;;3.75;3.65;;;0.10;99.90;;;;;;5073793;28;20033;-73
2023/01/23 06:06:50;;;;;;;2.80;2.70;;;0.00;99.90;;;;;;5055630;28;20089;-74
2023/01/23 06:09:16;;;;;;;2.95;2.85;;;0.10;99.90;;;;;;5073784;28;20477;-73
2023/01/23 06:11:41;;;;;;;2.95;2.85;;;0.00;99.90;;;;;;5073675;28;20381;-73
2023/01/23 06:14:07;;;;;;;3.25;3.15;;;0.10;99.90;;;;;;5073470;28;20066;-73
2023/01/23 06:16:32;;;;;;;2.78;2.67;;;0.10;99.90;;;;;;5055623;28;20389;-73
2023/01/23 06:18:58;;;;;;;2.78;2.67;;;0.10;99.90;;;;;;5055502;28;20477;-76
2023/01/23 06:21:23;;;;;;;3.65;3.55;;;0.10;99.90;;;;;;5074015;28;20103;-73
2023/01/23 06:23:49;;;;;;;4.85;4.65;;;0.10;99.90;;;;;;5045759;28;20363;-73
2023/01/23 06:26:14;;;;;;;2.92;2.83;;;0.10;99.90;;;;;;5053364;28;20025;-74
2023/01/23 06:28:40;;;;;;;2.83;2.72;;;0.10;99.90;;;;;;5053124;28;20033;-74
2023/01/23 06:31:08;;;;;;;2.95;2.85;;;0.10;99.90;;;;;;5051602;28;20401;-73
2023/01/23 06:33:33;;;;;;;3.00;2.90;;;0.10;99.90;;;;;;5073244;28;20029;-73
2023/01/23 06:36:00;;;;;;;3.47;3.38;;;0.10;99.90;;;;;;5052079;28;20042;-74
2023/01/23 06:38:27;;;;;;;3.03;2.92;;;0.10;99.90;;;;;;5035277;28;20021;-73
2023/01/23 06:40:52;;;;;;;5.10;4.70;;;0.10;99.90;;;;;;5035089;28;20491;-75
2023/01/23 06:43:18;;;;;;;3.60;3.50;;;0.20;99.90;;;;;;5058084;28;20044;-73
2023/01/23 06:45:45;;;;;;;2.75;2.65;;;0.10;99.90;;;;;;5066491;28;20021;-73
2023/01/23 06:48:11;;;;;;;3.30;3.20;;;0.20;99.90;;;;;;5063373;28;20031;-74
2023/01/23 06:50:38;;;;;;;3.47;3.25;;;0.20;99.90;;;;;;5066889;28;20024;-73
2023/01/23 06:53:04;;;;;;;3.42;3.33;;;0.20;99.90;;;;;;5062616;28;20036;-76
2023/01/23 06:55:30;;;;;;;3.72;3.60;;;0.20;99.90;;;;;;5069987;28;20047;-76
2023/01/23 06:57:55;;;;;;;3.20;3.10;;;0.20;99.90;;;;;;5049959;28;20024;-76
2023/01/23 07:00:21;;;;;;;3.15;3.05;;;0.20;99.90;;;;;;5053474;28;20467;-75
2023/01/23 07:02:47;;;;;;;4.70;4.50;;;0.20;99.90;;;;;;5033279;28;20588;-73
2023/01/23 07:05:12;;;;;;;3.05;2.95;;;0.20;99.90;;;;;;5046299;28;20491;-73
2023/01/23 07:07:38;;;;;;;3.28;3.17;;;0.20;99.90;;;;;;5050746;28;20056;-73
2023/01/23 07:10:04;;;;;;;5.93;4.90;;;0.20;99.90;;;;;;5046194;28;20033;-73
2023/01/23 07:12:30;;;;;;;3.75;3.65;;;0.20;99.90;;;;;;5043230;28;20025;-74
2023/01/23 07:14:55;;;;;;;5.25;4.93;;;0.20;99.90;;;;;;5057402;28;20513;-73
2023/01/23 07:17:21;;;;;;;2.92;2.83;;;0.10;99.90;;;;;;5071398;28;20020;-72
2023/01/23 07:19:46;;;;;;;2.65;2.55;;;0.10;99.90;;;;;;5068748;28;20095;-72
2023/01/23 07:22:16;;;;;;;4.72;4.32;;;0.20;99.90;;;;;;5052472;28;20532;-74
2023/01/23 07:24:42;;;;;;;4.63;4.30;;;0.20;99.90;;;;;;5052175;28;20108;-74
2023/01/23 07:27:07;;;;;;;3.35;3.15;;;0.20;99.90;;;;;;5052117;28;20103;-74
2023/01/23 07:29:33;;;;;;;5.57;5.18;;;0.10;99.90;;;;;;5051405;28;20021;-74
2023/01/23 07:31:59;;;;;;;5.00;4.65;;;0.10;99.90;;;;;;5051329;28;20025;-77
2023/01/23 07:34:25;;;;;;;5.18;4.10;;;0.10;99.90;;;;;;5051647;28;20062;-76
2023/01/23 07:36:51;;;;;;;3.47;3.38;;;0.00;99.90;;;;;;5050237;28;20021;-76
2023/01/23 07:39:16;;;;;;;4.32;4.07;;;0.00;99.90;;;;;;5049596;28;20012;-76
2023/01/23 07:41:42;;;;;;;3.00;2.88;;;0.00;99.90;;;;;;5059970;28;20028;-75
2023/01/23 07:44:16;;;;;;;5.15;4.80;;;0.00;99.90;;;;;;5063666;28;20509;-75
2023/01/23 07:46:42;;;;;;;6.28;5.78;;;0.00;99.90;;;;;;5050045;28;20025;-76
2023/01/23 07:49:07;;;;;;;4.20;4.00;;;0.00;99.90;;;;;;5025629;28;20028;-76
2023/01/23 07:51:33;;;;;;;5.15;4.75;;;0.00;99.90;;;;;;5070818;28;20065;-75
2023/01/23 07:53:59;;;;;;;3.20;3.10;;;0.00;99.90;;;;;;5058432;28;20025;-76
2023/01/23 07:56:25;;;;;;;2.95;2.85;;;0.10;99.90;;;;;;5060730;28;20360;-76
2023/01/23 07:58:50;;;;;;;4.32;4.10;;;0.20;99.90;;;;;;5047040;28;20032;-76
2023/01/23 08:01:17;;;;;;;5.20;4.80;;;0.10;99.90;;;;;;5051776;28;20047;-76
2023/01/23 08:03:43;;;;;;;2.90;2.80;;;0.20;99.90;;;;;;5047304;28;20495;-76
2023/01/23 08:06:09;;;;;;;3.88;2.78;;;0.20;99.90;;;;;;5033672;28;20033;-74
2023/01/23 08:08:35;;;;;;;5.07;4.63;;;0.30;99.90;;;;;;5063616;28;20029;-76
2023/01/23 08:11:04;;;;;;;4.82;3.80;;;0.40;99.90;;;;;;5042640;28;20529;-76
2023/01/23 08:13:29;;;;;;;3.75;3.30;;;0.70;99.90;;;;;;5051616;28;20047;-76
2023/01/23 08:15:57;;;;;;;2.33;2.22;;;0.50;99.90;;;;;;5038593;28;20525;-75
2023/01/23 08:18:22;;;;;;;2.45;2.35;;;0.50;99.90;;;;;;5049661;28;20029;-77
2023/01/23 08:20:55;;;;;;;3.10;3.00;;;0.40;99.90;;;;;;5041644;28;20158;-75
2023/01/23 08:23:24;;;;;;;2.33;2.22;;;0.30;99.90;;;;;;5049901;28;20075;-73
2023/01/23 08:25:54;;;;;;;2.90;2.80;;;0.40;99.90;;;;;;5025995;28;20486;-74
2023/01/23 08:28:20;;;;;;;2.70;2.60;;;0.50;99.90;;;;;;5071257;28;20044;-75
2023/01/23 08:30:46;;;;;;;2.97;2.88;;;0.60;99.90;;;;;;5057579;28;20402;-74
2023/01/23 08:33:12;;;;;;;2.92;2.83;;;0.60;99.90;;;;;;5051096;28;20032;-75
2023/01/23 08:35:37;;;;;;;2.78;2.67;;;0.60;99.90;;;;;;5051113;28;20033;-74
2023/01/23 08:38:04;;;;;;;3.13;3.03;;;0.70;99.90;;;;;;5050660;28;20025;-77
2023/01/23 08:40:30;;;;;;;3.03;2.92;;;0.70;99.90;;;;;;5033430;28;20317;-77
2023/01/23 08:42:55;;;;;;;2.97;2.88;;;0.70;99.90;;;;;;5032383;28;20250;-77
2023/01/23 08:45:21;;;;;;;5.07;4.68;;;0.70;99.90;;;;;;5050576;28;20053;-77
2023/01/23 08:47:47;;;;;;;3.70;3.58;;;0.80;99.90;;;;;;5050318;28;20021;-77
2023/01/23 08:50:13;;;;;;;3.58;3.38;;;0.90;99.90;;;;;;5033163;28;20035;-74
2023/01/23 08:52:39;;;;;;;2.65;2.55;;;0.90;99.90;;;;;;5050935;28;20028;-74
2023/01/23 08:55:05;;;;;;;3.13;3.03;;;1.10;99.90;;;;;;5032980;28;20479;-75
2023/01/23 08:57:30;;;;;;;2.85;2.75;;;1.00;99.90;;;;;;5050400;28;20036;-74
2023/01/23 08:59:56;;;;;;;3.00;2.90;;;1.00;99.90;;;;;;5035903;28;20025;-76
2023/01/23 09:02:22;;;;;;;4.47;4.18;;;1.10;99.90;;;;;;5037529;28;20036;-76
2023/01/23 09:04:48;;;;;;;3.60;3.50;;;1.00;99.90;;;;;;5055119;28;20028;-74
2023/01/23 09:07:13;;;;;;;3.33;3.22;;;0.90;99.90;;;;;;5058656;28;20024;-74
2023/01/23 09:09:39;;;;;;;3.13;3.00;;;0.90;99.90;;;;;;5037279;28;20025;-74
2023/01/23 09:12:04;;;;;;;4.20;4.00;;;0.90;99.90;;;;;;5056699;28;20375;-74
2023/01/23 09:14:30;;;;;;;3.22;3.03;;;0.90;99.90;;;;;;5047094;28;20025;-76
2023/01/23 09:16:56;;;;;;;3.72;3.53;;;0.90;99.90;;;;;;5061525;28;20501;-73
2023/01/23 09:19:21;;;;;;;3.10;3.00;;;0.80;99.90;;;;;;5074575;28;20035;-73
2023/01/23 09:21:47;;;;;;;3.35;3.25;;;0.70;99.90;;;;;;5074360;28;20029;-74
2023/01/23 09:24:12;;;;;;;4.15;4.05;;;0.70;99.90;;;;;;5056056;28;20021;-76
2023/01/23 09:26:38;;;;;;;3.20;3.00;;;0.60;99.90;;;;;;5054730;28;20506;-76
2023/01/23 09:29:03;;;;;;;3.17;3.08;;;0.60;99.90;;;;;;5071750;28;20031;-76
2023/01/23 09:31:29;;;;;;;3.03;2.92;;;0.60;99.90;;;;;;5065612;28;20079;-75
2023/01/23 09:33:55;;;;;;;3.08;2.97;;;0.80;99.90;;;;;;5034743;28;20099;-74
2023/01/23 09:36:20;;;;;;;3.17;3.08;;;0.80;99.90;;;;;;5048785;28;20033;-76
2023/01/23 09:38:48;;;;;;;6.88;6.30;;;1.00;99.90;;;;;;5051739;28;20032;-76
2023/01/23 09:41:19;;;;;;;2.10;2.10;;;1.10;99.90;;;;;;5034228;28;20024;-76
2023/01/23 09:43:52;;;;;;;2.10;2.08;;;1.20;99.90;;;;;;5054132;28;20029;-76
2023/01/23 09:46:27;;;;;;;2.50;2.40;;;1.40;99.90;;;;;;5054132;28;20021;-75
2023/01/23 09:49:03;;;;;;;5.68;5.35;;;1.50;99.90;;;;;;5035337;28;20025;-76
2023/01/23 09:51:52;;;;;;;3.78;3.58;;;1.60;99.90;;;;;;5054374;28;20050;-76
2023/01/23 09:54:33;;;;;;;3.92;3.58;;;1.50;99.90;;;;;;5053871;28;20096;-76
2023/01/23 09:57:02;;;;;;;2.92;2.83;;;1.50;99.90;;;;;;5053085;28;20052;-76
2023/01/23 09:59:34;;;;;;;2.78;2.58;;;1.40;99.90;;;;;;5053783;28;20036;-75
2023/01/23 10:01:59;;;;;;;2.15;2.15;;;1.30;99.90;;;;;;5053826;28;20107;-76
2023/01/23 10:04:25;;;;;;;2.75;2.65;;;1.40;99.90;;;;;;5053764;28;20105;-74
2023/01/23 10:07:10;;;;;;;1.85;1.85;;;1.40;99.90;;;;;;5035224;28;20024;-74
2023/01/23 10:09:39;;;;;;;2.20;2.10;;;1.50;99.90;;;;;;5053398;28;20553;-74
2023/01/23 10:12:22;;;;;;;2.53;2.42;;;1.40;99.90;;;;;;5053725;28;20393;-74
2023/01/23 10:15:14;;;;;;;1.92;1.92;;;1.30;99.90;;;;;;5053592;28;20079;-74
2023/01/23 10:18:06;;;;;;;1.85;1.85;;;1.30;99.90;;;;;;5052943;28;20029;-74
2023/01/23 10:20:42;;;;;;;3.28;3.08;;;1.30;99.90;;;;;;5053481;28;20425;-74
2023/01/23 10:23:27;;;;;;;3.70;3.60;;;1.30;99.90;;;;;;5053142;28;20053;-73
2023/01/23 10:25:54;;;;;;;3.72;2.78;;;1.40;99.90;;;;;;5051649;28;20021;-74
2023/01/23 10:28:22;;;;;;;2.92;2.83;;;1.40;99.90;;;;;;5032458;28;20120;-75
2023/01/23 10:30:53;;;;;;;2.20;2.13;;;1.30;99.90;;;;;;5064491;28;20383;-73
2023/01/23 10:33:19;;;;;;;3.50;2.67;;;1.30;99.90;;;;;;5051429;28;20028;-73
2023/01/23 10:35:57;;;;;;;2.45;2.30;;;1.20;99.90;;;;;;5050894;28;20029;-73
2023/01/23 10:38:30;;;;;;;1.70;1.70;;;1.30;99.90;;;;;;5022534;28;20021;-73
2023/01/23 10:41:13;;;;;;;2.90;2.47;;;1.40;99.90;;;;;;5051265;28;20021;-73
2023/01/23 10:43:41;;;;;;;1.42;1.42;;;1.50;99.90;;;;;;5035112;28;20505;-74
2023/01/23 10:46:16;;;;;;;8.52;4.18;;;1.40;99.90;;;;;;5052977;28;20142;-75
2023/01/23 10:48:41;;;;;;;1.50;1.50;;;1.50;99.90;;;;;;5052504;28;20025;-75
2023/01/23 10:51:30;;;;;;;2.55;2.25;;;1.60;99.90;;;;;;5035013;28;20276;-75
2023/01/23 10:54:07;;;;;;;1.52;1.52;;;1.60;99.90;;;;;;5053051;28;20044;-75
2023/01/23 10:56:37;;;;;;;2.35;2.15;;;1.70;99.90;;;;;;5052755;28;20029;-75
2023/01/23 10:59:04;;;;;;;1.20;1.20;;;1.70;99.90;;;;;;5052118;28;20060;-75
2023/01/23 11:01:35;;;;;;;1.85;1.58;;;1.70;99.90;;;;;;5051533;28;20021;-74
2023/01/23 11:04:19;;;;;;;1.90;1.80;;;1.80;99.90;;;;;;5032860;28;20329;-74
2023/01/23 11:07:03;;;;;;;2.20;2.10;;;1.80;99.90;;;;;;5052546;28;20063;-74
2023/01/23 11:09:30;;;;;;;1.63;1.52;;;1.90;99.90;;;;;;5052630;28;20081;-74
2023/01/23 11:12:13;;;;;;;1.23;1.23;;;1.80;99.90;;;;;;5052354;28;20111;-74
2023/01/23 11:14:38;;;;;;;2.45;2.35;;;1.80;99.90;;;;;;5053355;28;20088;-73
2023/01/23 11:17:15;;;;;;;1.65;1.65;;;1.90;99.90;;;;;;5052321;28;20033;-74
2023/01/23 11:19:42;;;;;;;1.33;1.33;;;1.90;99.90;;;;;;5052378;28;21663;-74
2023/01/23 11:22:35;;;;;;;2.33;2.20;;;2.00;99.90;;;;;;5051938;28;20036;-74
2023/01/23 11:25:26;;;;;;;2.20;2.10;;;1.90;99.90;;;;;;5034712;28;20052;-74
2023/01/23 11:28:00;;;;;;;3.33;2.88;;;2.00;99.90;;;;;;5052323;28;20021;-74
2023/01/23 11:30:46;;;;;;;1.00;1.00;;;2.10;99.90;;;;;;5064251;28;20327;-73
2023/01/23 11:33:21;;;;;;;2.95;2.75;;;2.40;99.90;;;;;;5052366;28;20100;-74
2023/01/23 11:36:04;;;;;;;1.02;1.02;;;2.60;99.90;;;;;;5052270;28;20071;-74
2023/01/23 11:38:48;;;;;;;2.42;1.83;;;2.60;99.90;;;;;;5051980;28;20021;-74
2023/01/23 11:41:14;;;;;;;2.05;1.95;;;2.50;99.90;;;;;;5051843;28;20051;-75
2023/01/23 11:43:40;;;;;;;7.38;4.10;;;2.60;99.90;;;;;;5052133;28;20059;-75
2023/01/23 11:46:35;;;;;;;1.73;1.63;;;2.70;99.90;;;;;;5051897;28;20056;-75
2023/01/23 11:49:11;;;;;;;2.15;1.77;;;2.70;99.90;;;;;;5051688;28;20035;-74
2023/01/23 11:51:42;;;;;;;2.95;2.70;;;2.70;99.90;;;;;;5051811;28;20021;-74
2023/01/23 11:54:26;;;;;;;1.80;1.75;;;2.70;99.90;;;;;;5071015;28;20025;-76
2023/01/23 11:56:52;;;;;;;1.92;1.80;;;2.70;99.90;;;;;;5071400;28;20050;-72
2023/01/23 11:59:40;;;;;;;1.10;1.10;;;2.80;99.90;;;;;;5071731;28;20029;-74
2023/01/23 12:02:23;;;;;;;4.80;2.88;;;2.80;99.90;;;;;;5043635;28;20036;-74
2023/01/23 12:04:51;;;;;;;0.98;0.98;;;2.70;99.90;;;;;;5033670;28;20647;-74
2023/01/23 12:07:25;;;;;;;1.40;1.40;;;2.70;99.90;;;;;;5040367;28;20028;-74
2023/01/23 12:09:56;;;;;;;1.55;1.45;;;2.70;99.90;;;;;;5053193;28;20388;-74
2023/01/23 12:12:52;;;;;;;5.50;2.25;;;2.70;99.90;;;;;;5051374;28;20455;-75
2023/01/23 12:16:06;;;;;;;1.08;1.05;;;2.80;99.90;;;;;;5033378;28;20122;-75
2023/01/23 12:19:04;;;;;;;0.85;0.85;;;2.80;99.90;;;;;;5031378;28;20038;-75
2023/01/23 12:21:54;;;;;;;0.93;0.93;;;2.70;99.90;;;;;;5008800;28;20428;-75
2023/01/23 12:24:43;;;;;;;1.38;1.38;;;2.60;99.90;;;;;;5049518;28;20112;-75
2023/01/23 12:27:35;;;;;;;1.13;1.13;;;2.70;99.90;;;;;;5048874;28;20017;-74
2023/01/23 12:30:06;;;;;;;0.98;0.98;;;2.70;99.90;;;;;;5057257;28;20482;-74
2023/01/23 12:33:01;;;;;;;1.00;1.00;;;2.70;99.90;;;;;;5054715;28;20096;-74
2023/01/23 12:36:03;;;;;;;3.53;1.85;;;2.80;99.90;;;;;;5055294;28;20033;-74
2023/01/23 12:38:56;;;;;;;1.75;1.65;;;2.90;99.90;;;;;;5027180;28;20138;-74
2023/01/23 12:41:35;;;;;;;2.15;2.05;;;2.90;99.90;;;;;;5037477;28;20120;-73
2023/01/23 12:44:13;;;;;;;0.75;0.75;;;3.00;99.90;;;;;;5054563;28;20044;-75
2023/01/23 12:47:06;;;;;;;1.15;1.10;;;3.00;99.90;;;;;;5054479;28;20031;-75
2023/01/23 12:49:51;;;;;;;0.70;0.70;;;2.90;99.90;;;;;;5054839;28;20429;-74
2023/01/23 12:52:27;;;;;;;1.45;1.42;;;3.00;99.90;;;;;;5055193;28;20021;-73
2023/01/23 12:55:04;;;;;;;1.65;1.55;;;3.00;99.90;;;;;;5055353;28;20025;-74
2023/01/23 12:57:39;;;;;;;1.50;1.50;;;3.20;99.90;;;;;;5054085;28;20020;-73
2023/01/23 13:00:27;;;;;;;1.08;1.08;;;3.10;99.90;;;;;;5037737;28;20033;-74
2023/01/23 13:03:00;;;;;;;0.70;0.70;;;2.90;99.90;;;;;;5064900;28;20027;-74
2023/01/23 13:05:50;;;;;;;6.47;3.00;;;2.90;99.90;;;;;;5065418;28;20086;-74
2023/01/23 13:08:40;;;;;;;0.60;0.60;;;3.00;99.90;;;;;;5031932;28;20021;-74
2023/01/23 13:14:00;;;;;;;0.60;0.60;;;3.00;99.90;;;;;;5055765;28;20652;-74
2023/01/23 13:16:29;;;;;;;0.70;0.70;;;3.00;99.90;;;;;;5054077;28;20103;-74